Time;durP1;ratioP1;P1;durP2;ratioP2;P2;SDS_P1;SDS_P2;PMS_P1;PMS_P2;Temp;Humidity;BMP_temperature;BMP_pressure;BME280_temperature;BME280_humidity;BME280_pressure;Samples;Min_cycle;Max_cycle;Signal;HPM_P1;HPM_P2
2023/09/11 00:00:05;;;;;;;16.67;9.73;;;;;;;17.35;100.00;100436.41;4995974;28;20193;-71
2023/09/11 00:02:31;;;;;;;16.53;10.33;;;;;;;17.29;100.00;100433.84;4995734;28;20212;-71
2023/09/11 00:04:58;;;;;;;22.90;10.63;;;;;;;17.34;100.00;100436.44;4994644;28;20227;-71
2023/09/11 00:07:24;;;;;;;16.43;9.60;;;;;;;17.33;100.00;100446.25;4990378;28;21154;-71
2023/09/11 00:09:51;;;;;;;16.43;10.53;;;;;;;17.35;100.00;100439.09;4994287;28;20209;-71
2023/09/11 00:12:18;;;;;;;18.43;10.50;;;;;;;17.32;100.00;100433.78;4999177;28;20204;-72
2023/09/11 00:14:45;;;;;;;18.07;10.13;;;;;;;17.19;100.00;100433.03;4994806;28;20952;-72
2023/09/11 00:17:11;;;;;;;18.10;10.20;;;;;;;17.18;100.00;100428.59;4995597;28;20232;-71
2023/09/11 00:19:38;;;;;;;15.33;10.40;;;;;;;17.23;100.00;100429.44;5000244;28;20730;-71
2023/09/11 00:22:04;;;;;;;19.63;10.23;;;;;;;17.16;100.00;100426.84;4997435;28;20278;-72
2023/09/11 00:24:30;;;;;;;22.93;9.80;;;;;;;17.06;100.00;100427.88;4998298;28;20200;-71
2023/09/11 00:26:57;;;;;;;21.73;9.37;;;;;;;17.08;100.00;100428.75;4997696;28;20232;-72
2023/09/11 00:29:23;;;;;;;20.23;10.50;;;;;;;17.15;100.00;100430.41;5000347;28;20338;-72
2023/09/11 00:31:50;;;;;;;20.30;10.10;;;;;;;17.11;100.00;100426.91;4997007;28;20750;-72
2023/09/11 00:34:16;;;;;;;22.13;9.37;;;;;;;17.08;100.00;100423.38;4997939;28;20211;-72
2023/09/11 00:36:43;;;;;;;16.43;9.93;;;;;;;17.09;100.00;100425.16;4996478;28;20307;-72
2023/09/11 00:39:09;;;;;;;28.17;10.43;;;;;;;17.03;100.00;100425.22;4998152;28;20196;-72
2023/09/11 00:41:35;;;;;;;14.87;9.67;;;;;;;16.91;100.00;100407.56;4996875;28;20205;-72
2023/09/11 00:44:02;;;;;;;19.23;10.10;;;;;;;16.83;100.00;100409.44;4998012;28;20262;-72
2023/09/11 00:46:30;;;;;;;18.13;10.00;;;;;;;16.86;100.00;100406.72;5015101;28;20220;-72
2023/09/11 00:48:57;;;;;;;19.37;10.07;;;;;;;16.85;100.00;100407.63;4999919;28;20291;-72
2023/09/11 00:51:23;;;;;;;17.27;10.00;;;;;;;16.88;100.00;100411.16;5012089;28;20224;-72
2023/09/11 00:53:50;;;;;;;18.43;10.13;;;;;;;16.88;100.00;100407.59;4996815;28;20200;-72
2023/09/11 00:56:17;;;;;;;16.43;9.73;;;;;;;16.78;100.00;100409.47;5000991;28;20226;-71
2023/09/11 00:58:44;;;;;;;21.50;10.10;;;;;;;16.77;100.00;100410.38;4996830;28;20342;-72
2023/09/11 01:01:12;;;;;;;24.37;11.30;;;;;;;16.68;100.00;100405.13;4998075;28;20635;-71
2023/09/11 01:03:39;;;;;;;16.07;9.80;;;;;;;16.64;100.00;100400.69;4999025;28;20295;-71
2023/09/11 01:06:07;;;;;;;23.00;10.13;;;;;;;16.66;100.00;100406.06;5001264;28;20792;-72
2023/09/11 01:08:33;;;;;;;14.53;10.13;;;;;;;16.63;100.00;100396.25;4994799;28;20604;-72
2023/09/11 01:11:00;;;;;;;18.43;9.23;;;;;;;16.53;100.00;100399.94;4997264;28;20286;-72
2023/09/11 01:13:26;;;;;;;17.10;9.47;;;;;;;16.46;100.00;100390.22;4993080;28;20215;-71
2023/09/11 01:16:01;;;;;;;16.37;10.30;;;;;;;16.44;100.00;100392.91;4994429;28;20235;-71
2023/09/11 01:18:37;;;;;;;17.57;9.97;;;;;;;16.46;100.00;100395.56;4994623;28;20200;-72
2023/09/11 01:21:40;;;;;;;19.70;10.47;;;;;;;16.47;100.00;100400.00;4999368;28;20811;-71
2023/09/11 01:24:29;;;;;;;16.07;9.83;;;;;;;16.46;100.00;100392.88;4966028;28;20210;-71
2023/09/11 01:27:29;;;;;;;20.03;10.47;;;;;;;16.45;100.00;100389.31;4992731;28;20231;-71
2023/09/11 01:29:58;;;;;;;18.80;9.90;;;;;;;16.48;100.00;100391.06;5013501;28;20219;-72
2023/09/11 01:32:25;;;;;;;19.23;9.43;;;;;;;16.58;100.00;100392.75;4998157;28;20630;-71
2023/09/11 01:34:52;;;;;;;18.00;9.37;;;;;;;16.55;100.00;100393.66;4997020;28;20204;-71
2023/09/11 01:37:19;;;;;;;14.47;9.63;;;;;;;16.46;100.00;100390.22;4998915;28;20200;-72
2023/09/11 01:39:45;;;;;;;14.77;9.70;;;;;;;16.40;100.00;100392.91;4997683;28;20196;-72
2023/09/11 01:42:17;;;;;;;17.93;9.70;;;;;;;16.32;100.00;100386.78;4996795;28;20209;-71
2023/09/11 01:44:46;;;;;;;21.83;9.70;;;;;;;16.28;100.00;100389.47;4996690;28;20208;-72
2023/09/11 01:47:18;;;;;;;18.70;9.93;;;;;;;16.20;100.00;100388.66;4997261;28;20561;-72
2023/09/11 01:49:47;;;;;;;18.00;9.90;;;;;;;16.10;100.00;100389.66;4998336;28;20204;-71
2023/09/11 01:52:15;;;;;;;19.90;9.67;;;;;;;16.05;100.00;100386.16;5010847;28;20231;-72
2023/09/11 01:54:43;;;;;;;16.30;9.90;;;;;;;15.97;100.00;100396.00;4998818;28;20201;-71
2023/09/11 01:57:09;;;;;;;19.10;10.20;;;;;;;16.00;100.00;100387.94;4996860;28;20628;-72
2023/09/11 01:59:36;;;;;;;19.90;10.03;;;;;;;15.99;100.00;100388.84;4996641;28;20208;-71
2023/09/11 02:02:02;;;;;;;18.13;10.83;;;;;;;16.02;100.00;100387.97;4996558;28;20200;-72
2023/09/11 02:04:29;;;;;;;19.83;10.60;;;;;;;16.04;100.00;100394.19;4998870;28;20216;-71
2023/09/11 02:06:55;;;;;;;19.03;10.20;;;;;;;16.05;100.00;100395.94;4993546;28;20312;-72
2023/09/11 02:09:22;;;;;;;19.47;9.50;;;;;;;16.10;100.00;100403.03;5000451;28;20205;-71
2023/09/11 02:11:48;;;;;;;25.07;10.10;;;;;;;16.07;100.00;100389.69;4996474;28;20730;-72
2023/09/11 02:14:15;;;;;;;16.00;10.00;;;;;;;15.96;100.00;100386.22;4995618;28;20684;-72
2023/09/11 02:16:41;;;;;;;15.43;9.83;;;;;;;15.96;100.00;100392.44;4993940;28;20240;-71
2023/09/11 02:19:07;;;;;;;15.80;9.77;;;;;;;15.90;100.00;100383.59;4998424;28;20292;-71
2023/09/11 02:21:34;;;;;;;18.63;9.90;;;;;;;15.90;100.00;100391.59;4998435;28;20211;-71
2023/09/11 02:24:00;;;;;;;14.70;9.23;;;;;;;15.89;100.00;100392.50;4995366;28;20308;-71
2023/09/11 02:26:27;;;;;;;21.90;9.87;;;;;;;15.85;100.00;100390.75;4997907;28;20256;-72
2023/09/11 02:28:54;;;;;;;18.60;9.83;;;;;;;15.78;100.00;100386.38;4998275;28;20277;-72
2023/09/11 02:31:21;;;;;;;20.33;10.53;;;;;;;15.77;100.00;100393.50;4996122;28;20216;-72
2023/09/11 02:33:47;;;;;;;19.23;10.90;;;;;;;15.75;100.00;100384.63;4995865;28;20549;-72
2023/09/11 02:36:13;;;;;;;20.53;10.17;;;;;;;15.70;100.00;100394.44;4997509;28;20784;-72
2023/09/11 02:38:40;;;;;;;19.67;10.57;;;;;;;15.67;100.00;100402.47;4996462;28;20196;-71
2023/09/11 02:41:07;;;;;;;19.17;10.97;;;;;;;15.64;100.00;100392.72;4997600;28;20212;-71
2023/09/11 02:43:36;;;;;;;20.53;10.67;;;;;;;15.59;100.00;100398.94;4992177;28;20275;-71
2023/09/11 02:46:02;;;;;;;24.93;10.50;;;;;;;15.57;100.00;100395.38;4990454;28;20236;-72
2023/09/11 02:48:29;;;;;;;21.30;11.03;;;;;;;15.53;100.00;100399.84;5008569;28;20208;-72
2023/09/11 02:50:55;;;;;;;19.53;10.23;;;;;;;15.50;100.00;100401.66;4991760;28;20224;-71
2023/09/11 02:53:22;;;;;;;19.30;10.13;;;;;;;15.45;100.00;100393.69;4993844;28;20201;-71
2023/09/11 02:55:48;;;;;;;16.83;10.00;;;;;;;15.43;100.00;100391.91;4995611;28;20703;-72
2023/09/11 02:58:15;;;;;;;15.20;9.23;;;;;;;15.42;100.00;100390.16;4994014;28;20232;-72
2023/09/11 03:00:41;;;;;;;18.33;10.00;;;;;;;15.41;100.00;100385.72;4995132;28;20201;-72
2023/09/11 03:03:09;;;;;;;19.77;10.93;;;;;;;15.41;100.00;100389.25;4993495;28;20618;-72
2023/09/11 03:05:36;;;;;;;17.17;11.40;;;;;;;15.40;100.00;100384.81;5002599;28;20224;-72
2023/09/11 03:08:03;;;;;;;17.47;10.77;;;;;;;15.41;100.00;100377.69;4992848;28;20200;-73
2023/09/11 03:10:32;;;;;;;21.63;11.20;;;;;;;15.39;100.00;100382.16;4990197;28;20201;-71
2023/09/11 03:12:58;;;;;;;20.67;11.67;;;;;;;15.45;100.00;100382.13;4994414;28;20227;-72
2023/09/11 03:15:29;;;;;;;24.53;12.87;;;;;;;15.55;100.00;100390.06;4994457;28;20628;-72
2023/09/11 03:17:55;;;;;;;30.90;14.03;;;;;;;15.69;100.00;100376.66;4991304;28;20207;-71
2023/09/11 03:20:22;;;;;;;28.10;14.17;;;;;;;15.77;100.00;100384.59;4989288;28;20289;-72
2023/09/11 03:22:49;;;;;;;27.03;13.23;;;;;;;15.70;100.00;100372.19;4993654;28;20197;-72
2023/09/11 03:25:15;;;;;;;23.60;15.57;;;;;;;15.80;100.00;100376.56;4992938;28;20222;-72
2023/09/11 03:27:43;;;;;;;23.73;15.73;;;;;;;15.81;100.00;100373.88;4992244;28;20209;-71
2023/09/11 03:30:10;;;;;;;26.33;13.83;;;;;;;15.78;100.00;100373.03;4992220;28;20284;-72
2023/09/11 03:32:36;;;;;;;23.57;14.23;;;;;;;15.66;100.00;100356.22;4988737;28;20216;-71
2023/09/11 03:35:03;;;;;;;22.50;12.33;;;;;;;15.55;100.00;100355.34;4993700;28;20315;-72
2023/09/11 03:37:29;;;;;;;21.73;13.53;;;;;;;15.49;100.00;100363.41;4991765;28;20205;-72
2023/09/11 03:39:57;;;;;;;19.97;12.70;;;;;;;15.49;100.00;100365.19;4989938;28;20211;-72
2023/09/11 03:42:23;;;;;;;20.40;12.87;;;;;;;15.45;100.00;100364.31;4990308;28;20201;-73
2023/09/11 03:44:50;;;;;;;23.23;13.07;;;;;;;15.46;100.00;100367.88;4990263;28;20211;-72
2023/09/11 03:47:16;;;;;;;23.70;13.80;;;;;;;15.39;100.00;100366.16;4992659;28;20200;-72
2023/09/11 03:49:42;;;;;;;21.77;13.30;;;;;;;15.29;100.00;100368.00;4989693;28;20288;-73
2023/09/11 03:52:09;;;;;;;23.73;12.90;;;;;;;15.32;100.00;100366.19;4989203;28;20236;-72
2023/09/11 03:54:35;;;;;;;25.10;12.97;;;;;;;15.24;100.00;100368.03;4994143;28;20707;-72
2023/09/11 03:57:02;;;;;;;21.80;12.97;;;;;;;15.16;100.00;100375.16;4991500;28;20300;-71
2023/09/11 03:59:28;;;;;;;22.33;12.13;;;;;;;15.10;100.00;100366.31;4991524;28;20287;-74
2023/09/11 04:01:55;;;;;;;19.23;12.37;;;;;;;15.01;100.00;100361.94;4992397;28;20677;-72
2023/09/11 04:04:21;;;;;;;22.70;12.60;;;;;;;15.05;100.00;100363.69;4991787;28;20200;-71
2023/09/11 04:06:47;;;;;;;20.70;12.37;;;;;;;15.04;100.00;100360.13;5013663;28;20232;-71
2023/09/11 04:09:14;;;;;;;22.03;12.20;;;;;;;15.08;100.00;100362.78;4989499;28;20661;-71
2023/09/11 04:11:40;;;;;;;24.90;12.83;;;;;;;15.13;100.00;100363.63;5005088;28;20219;-72
2023/09/11 04:14:07;;;;;;;20.53;12.60;;;;;;;15.11;100.00;100350.31;4991944;28;20209;-71
2023/09/11 04:16:33;;;;;;;26.73;14.00;;;;;;;15.05;100.00;100361.91;4987946;28;20320;-72
2023/09/11 04:19:00;;;;;;;19.10;12.57;;;;;;;15.02;100.00;100359.25;4990981;28;20208;-73
2023/09/11 04:21:26;;;;;;;19.77;13.53;;;;;;;15.01;100.00;100359.25;4993100;28;20244;-71
2023/09/11 04:23:53;;;;;;;24.23;12.70;;;;;;;15.00;100.00;100354.81;4988815;28;20219;-72
2023/09/11 04:26:19;;;;;;;25.57;12.90;;;;;;;15.01;100.00;100365.47;4992684;28;20236;-72
2023/09/11 04:28:46;;;;;;;22.27;13.67;;;;;;;14.96;100.00;100361.06;4989617;28;20201;-74
2023/09/11 04:31:12;;;;;;;26.53;13.37;;;;;;;15.01;100.00;100357.47;5007834;28;21010;-72
2023/09/11 04:33:39;;;;;;;25.13;12.23;;;;;;;15.04;100.00;100368.13;5011239;28;20648;-71
2023/09/11 04:36:06;;;;;;;21.83;13.30;;;;;;;14.99;100.00;100374.38;4993780;28;20731;-71
2023/09/11 04:38:32;;;;;;;31.47;13.90;;;;;;;14.96;100.00;100364.63;5010903;28;20548;-72
2023/09/11 04:40:59;;;;;;;27.13;13.70;;;;;;;14.98;100.00;100365.50;5007408;28;20700;-71
2023/09/11 04:43:25;;;;;;;23.70;13.73;;;;;;;15.02;100.00;100361.03;4992302;28;20295;-71
2023/09/11 04:45:51;;;;;;;21.90;13.53;;;;;;;14.95;100.00;100367.28;4988359;28;20225;-72
2023/09/11 04:48:18;;;;;;;23.50;13.13;;;;;;;14.91;100.00;100363.75;5003465;28;20291;-71
2023/09/11 04:50:44;;;;;;;25.97;13.30;;;;;;;14.94;100.00;100371.75;4995345;28;20220;-71
2023/09/11 04:53:11;;;;;;;24.67;13.17;;;;;;;15.03;100.00;100360.13;4992855;28;20220;-72
2023/09/11 04:55:37;;;;;;;29.13;13.20;;;;;;;15.01;100.00;100357.47;4989894;28;20807;-72
2023/09/11 04:58:04;;;;;;;23.20;12.87;;;;;;;15.03;100.00;100360.13;4994133;28;20769;-72
2023/09/11 05:00:30;;;;;;;26.80;13.47;;;;;;;15.18;100.00;100372.50;4987890;28;20209;-71
2023/09/11 05:02:56;;;;;;;25.97;13.47;;;;;;;15.21;100.00;100369.81;4989675;28;20201;-73
2023/09/11 05:05:23;;;;;;;22.13;12.73;;;;;;;15.13;100.00;100374.31;4995767;28;20217;-74
2023/09/11 05:07:50;;;;;;;21.80;13.43;;;;;;;15.24;100.00;100375.16;4996643;28;20251;-72
2023/09/11 05:10:16;;;;;;;25.20;13.57;;;;;;;15.31;100.00;100374.22;4994231;28;20616;-71
2023/09/11 05:12:43;;;;;;;24.20;12.67;;;;;;;15.41;100.00;100375.03;4992223;28;20332;-72
2023/09/11 05:15:09;;;;;;;23.40;13.53;;;;;;;15.37;100.00;100376.84;4996257;28;20264;-71
2023/09/11 05:17:36;;;;;;;22.73;13.57;;;;;;;15.36;100.00;100381.28;4991452;28;20212;-71
2023/09/11 05:20:04;;;;;;;24.63;13.30;;;;;;;15.33;100.00;100375.97;4997524;28;20208;-71
2023/09/11 05:22:30;;;;;;;21.63;12.87;;;;;;;15.40;100.00;100381.28;4995372;28;20684;-71
2023/09/11 05:24:56;;;;;;;21.57;13.20;;;;;;;15.42;100.00;100380.38;4992677;28;20585;-71
2023/09/11 05:27:23;;;;;;;23.07;13.03;;;;;;;15.39;100.00;100375.03;5010161;28;20209;-72
2023/09/11 05:29:49;;;;;;;25.67;14.47;;;;;;;15.49;100.00;100375.88;4997167;28;20219;-73
2023/09/11 05:32:17;;;;;;;23.47;13.03;;;;;;;15.53;100.00;100381.16;4989922;28;20216;-72
2023/09/11 05:34:44;;;;;;;22.80;12.73;;;;;;;15.59;100.00;100381.16;4995508;28;20214;-72
2023/09/11 05:37:10;;;;;;;27.27;12.90;;;;;;;15.62;100.00;100381.16;5001598;28;20205;-72
2023/09/11 05:39:37;;;;;;;23.37;12.37;;;;;;;15.64;100.00;100371.34;4994656;28;20283;-71
2023/09/11 05:42:03;;;;;;;24.53;13.63;;;;;;;15.64;100.00;100376.69;4993219;28;20393;-71
2023/09/11 05:44:30;;;;;;;21.30;12.70;;;;;;;15.66;100.00;100374.00;5002055;28;20266;-75
2023/09/11 05:46:56;;;;;;;22.50;12.17;;;;;;;15.77;100.00;100381.94;5000095;28;20228;-72
2023/09/11 05:49:23;;;;;;;23.03;12.73;;;;;;;15.90;100.00;100378.25;5005815;28;20707;-72
2023/09/11 05:51:49;;;;;;;20.63;12.90;;;;;;;15.97;100.00;100378.19;4993832;28;20220;-72
2023/09/11 05:54:16;;;;;;;22.63;11.87;;;;;;;16.02;100.00;100388.84;4999700;28;20204;-73
2023/09/11 05:56:42;;;;;;;20.83;12.30;;;;;;;16.12;100.00;100384.31;4991492;28;20911;-72
2023/09/11 05:59:09;;;;;;;26.23;13.20;;;;;;;16.17;100.00;100377.13;5003981;28;20618;-74
2023/09/11 06:01:35;;;;;;;20.60;12.87;;;;;;;16.17;100.00;100383.34;4996970;28;20247;-71
2023/09/11 06:04:02;;;;;;;23.07;12.27;;;;;;;16.22;100.00;100383.31;4992539;28;20201;-72
2023/09/11 06:06:29;;;;;;;26.13;13.20;;;;;;;16.29;100.00;100379.66;4994678;28;20235;-71
2023/09/11 06:08:58;;;;;;;25.37;12.50;;;;;;;16.36;100.00;100385.84;4998974;28;20204;-72
2023/09/11 06:11:25;;;;;;;25.43;12.80;;;;;;;16.48;100.00;100386.63;4992807;28;20246;-73
2023/09/11 06:13:51;;;;;;;21.10;12.23;;;;;;;16.60;100.00;100393.59;4992201;28;20208;-76
2023/09/11 06:16:18;;;;;;;19.27;12.20;;;;;;;16.67;100.00;100386.44;4991879;28;20224;-71
2023/09/11 06:18:44;;;;;;;27.70;12.30;;;;;;;16.76;100.00;100391.66;4990741;28;20211;-74
2023/09/11 06:21:11;;;;;;;23.10;11.67;;;;;;;16.88;100.00;100397.78;4989699;28;20230;-76
2023/09/11 06:23:38;;;;;;;19.67;11.50;;;;;;;16.94;100.00;100386.09;4999216;28;20936;-72
2023/09/11 06:26:04;;;;;;;17.73;11.40;;;;;;;17.03;100.00;100401.16;4991260;28;20307;-72
2023/09/11 06:28:31;;;;;;;20.70;11.67;;;;;;;17.08;100.00;100400.19;5007031;28;20204;-72
2023/09/11 06:30:59;;;;;;;19.77;10.93;;;;;;;17.19;100.00;100392.00;4995983;28;20530;-72
2023/09/11 06:33:27;;;;;;;21.27;11.17;;;;;;;17.31;100.00;100399.91;4993345;28;20227;-72
2023/09/11 06:35:54;;;;;;;22.10;11.40;;;;;;;17.48;100.00;100402.31;5002260;28;20243;-72
2023/09/11 06:38:21;;;;;;;20.83;11.50;;;;;;;17.58;100.00;100409.28;4993131;28;20216;-73
2023/09/11 06:40:48;;;;;;;22.80;11.70;;;;;;;17.64;100.00;100406.56;5002024;28;20327;-72
2023/09/11 06:43:14;;;;;;;25.77;12.20;;;;;;;17.72;100.00;100399.31;4993118;28;20603;-72
2023/09/11 06:45:41;;;;;;;22.67;11.27;;;;;;;17.81;100.00;100401.84;4993508;28;20384;-72
2023/09/11 06:48:11;;;;;;;22.53;11.70;;;;;;;17.93;100.00;100394.50;4990396;28;20297;-73
2023/09/11 06:50:40;;;;;;;20.13;9.87;;;;;;;18.06;100.00;100401.44;4993547;28;20294;-73
2023/09/11 06:53:08;;;;;;;20.73;10.87;;;;;;;18.21;100.00;100405.66;4997676;28;20219;-72
2023/09/11 06:55:34;;;;;;;21.50;10.73;;;;;;;18.30;100.00;100401.00;4995500;28;20220;-72
2023/09/11 06:58:02;;;;;;;17.93;9.80;;;;;;;18.44;100.00;100403.47;4991359;28;20201;-72
2023/09/11 07:00:28;;;;;;;17.40;9.57;;;;;;;18.56;100.00;100394.28;4990544;28;20205;-73
2023/09/11 07:02:56;;;;;;;19.43;10.30;;;;;;;18.79;100.00;100394.72;4999153;28;20224;-73
2023/09/11 07:05:23;;;;;;;21.77;9.87;;;;;;;18.90;100.00;100399.91;4997782;28;20275;-72
2023/09/11 07:07:54;;;;;;;17.37;10.07;;;;;;;18.98;100.00;100400.63;5005399;28;20209;-73
2023/09/11 07:10:21;;;;;;;22.97;10.63;;;;;;;19.22;100.00;100405.50;5001057;28;20667;-74
2023/09/11 07:13:05;;;;;;;19.10;9.60;;;;;;;19.58;100.00;100402.91;4994749;28;20221;-74
2023/09/11 07:15:32;;;;;;;17.20;11.13;;;;;;;19.87;100.00;100378.03;5003681;23;20331;-72
2023/09/11 07:18:17;;;;;;;20.13;9.63;;;;;;;20.47;100.00;100377.41;4999284;28;20223;-71
2023/09/11 07:20:53;;;;;;;15.65;9.95;;;;;;;21.45;100.00;100386.22;4997088;28;20231;-73
2023/09/11 07:23:30;;;;;;;17.38;9.98;;;;;;;21.93;100.00;100396.34;4998196;28;20657;-73
2023/09/11 07:26:12;;;;;;;16.50;9.75;;;;;;;21.92;100.00;100370.31;5023522;23;20235;-72
2023/09/11 07:29:07;;;;;;;17.85;10.15;;;;;;;21.84;100.00;100378.66;4997697;28;20205;-72
2023/09/11 07:31:43;;;;;;;23.10;10.35;;;;;;;21.66;100.00;100384.66;4996093;28;20200;-73
2023/09/11 07:34:10;;;;;;;23.65;11.63;;;;;;;21.58;100.00;100387.59;5002746;28;20307;-73
2023/09/11 07:36:37;;;;;;;22.60;12.43;;;;;;;21.37;100.00;100383.75;4986794;28;20224;-73
2023/09/11 07:39:06;;;;;;;18.70;10.75;;;;;;;21.48;100.00;100388.81;5017583;23;20497;-70
2023/09/11 07:41:32;;;;;;;20.60;11.73;;;;;;;21.50;100.00;100389.66;5001706;28;20323;-70
2023/09/11 07:43:59;;;;;;;25.90;11.65;;;;;;;21.43;100.00;100385.38;4993423;28;20200;-70
2023/09/11 07:46:25;;;;;;;24.05;11.93;;;;;;;21.42;100.00;100392.59;4995391;28;20287;-70
2023/09/11 07:48:52;;;;;;;22.17;11.75;;;;;;;21.43;100.00;100399.75;4992357;28;20660;-71
2023/09/11 07:51:18;;;;;;;19.30;10.88;;;;;;;21.42;100.00;100392.59;4983371;28;20231;-72
2023/09/11 07:53:45;;;;;;;26.83;11.77;;;;;;;21.48;100.00;100403.16;4983691;28;20223;-73
2023/09/11 07:56:12;;;;;;;17.83;11.48;;;;;;;21.39;100.00;100390.00;4982942;28;20209;-73
2023/09/11 07:58:39;;;;;;;26.13;12.02;;;;;;;21.35;100.00;100391.00;4984910;28;20201;-73
2023/09/11 08:01:06;;;;;;;23.08;12.32;;;;;;;21.45;100.00;100397.00;4983345;28;20225;-72
2023/09/11 08:03:34;;;;;;;19.27;12.20;;;;;;;21.55;100.00;100399.34;4981539;28;20201;-70
2023/09/11 08:06:04;;;;;;;25.10;11.65;;;;;;;21.74;100.00;100396.09;4980921;28;20656;-71
2023/09/11 08:08:30;;;;;;;19.92;11.25;;;;;;;21.89;100.00;100396.44;4981887;28;20209;-71
2023/09/11 08:10:57;;;;;;;23.20;12.27;;;;;;;21.98;100.00;100391.69;4982043;28;20225;-70
2023/09/11 08:13:24;;;;;;;19.95;12.07;;;;;;;21.98;100.00;100400.66;4978384;28;20216;-68
2023/09/11 08:15:51;;;;;;;22.60;11.55;;;;;;;22.15;100.00;100397.44;4978691;28;20216;-72
2023/09/11 08:18:17;;;;;;;20.33;11.20;;;;;;;22.35;100.00;100396.75;4984203;28;20247;-70
2023/09/11 08:20:49;;;;;;;26.70;11.43;;;;;;;22.62;100.00;100398.47;4986920;28;20229;-70
2023/09/11 08:23:16;;;;;;;22.83;11.10;;;;;;;22.78;100.00;100405.06;4987489;28;20219;-70
2023/09/11 08:25:42;;;;;;;26.13;11.32;;;;;;;22.92;100.00;100401.91;4985883;28;20205;-71
2023/09/11 08:28:09;;;;;;;20.95;10.68;;;;;;;23.09;100.00;100394.06;4988689;28;20207;-71
2023/09/11 08:30:35;;;;;;;18.48;10.20;;;;;;;23.26;100.00;100397.94;4984745;28;20311;-70
2023/09/11 08:33:04;;;;;;;25.80;11.10;;;;;;;23.34;100.00;100406.63;4986214;28;20221;-70
2023/09/11 08:35:31;;;;;;;20.48;10.73;;;;;;;23.34;100.00;100404.81;4987937;28;20205;-70
2023/09/11 08:37:58;;;;;;;20.17;11.52;;;;;;;23.57;100.00;100400.34;4984352;28;20315;-70
2023/09/11 08:40:30;;;;;;;23.55;10.57;;;;;;;23.70;100.00;100412.44;4983489;28;20224;-67
2023/09/11 08:42:58;;;;;;;22.33;10.48;;;;;;;23.84;100.00;100396.53;4983101;28;20252;-68
2023/09/11 08:45:26;;;;;;;18.88;11.15;;;;;;;23.78;100.00;100387.78;4987993;28;20687;-68
2023/09/11 08:47:58;;;;;;;19.30;10.30;;;;;;;23.82;100.00;100386.72;4986605;28;20203;-67
2023/09/11 08:50:31;;;;;;;23.33;10.52;;;;;;;23.92;100.00;100394.38;4986677;28;20303;-68
2023/09/11 08:52:59;;;;;;;22.45;11.00;;;;;;;23.99;100.00;100390.47;4995749;28;20247;-68
2023/09/11 08:55:27;;;;;;;23.88;11.23;;;;;;;24.12;100.00;100395.41;4987389;28;20387;-68
2023/09/11 08:57:57;;;;;;;21.02;10.15;;;;;;;24.34;100.00;100391.72;4984153;28;20200;-69
2023/09/11 09:00:24;;;;;;;23.80;11.48;;;;;;;24.47;100.00;100397.50;4985829;28;20503;-68
2023/09/11 09:02:51;;;;;;;25.33;10.38;;;;;;;24.65;100.00;100393.09;4986981;28;20209;-68
2023/09/11 09:05:19;;;;;;;21.25;10.52;;;;;;;24.80;100.00;100396.94;4988565;28;20499;-71
2023/09/11 09:07:47;;;;;;;22.35;11.10;;;;;;;24.82;100.00;100385.09;4980777;28;20231;-69
2023/09/11 09:10:14;;;;;;;29.40;10.35;;;;;;;24.84;100.00;100385.91;4983781;28;20911;-68
2023/09/11 09:12:42;;;;;;;19.25;9.60;;;;;;;25.05;100.00;100386.78;4985602;28;20231;-69
2023/09/11 09:15:10;;;;;;;25.70;11.02;;;;;;;25.10;100.00;100373.88;4985841;28;20217;-69
2023/09/11 09:17:36;;;;;;;23.17;10.40;;;;;;;25.25;100.00;100369.59;4985703;28;20197;-69
2023/09/11 09:20:04;;;;;;;19.70;9.82;;;;;;;25.46;100.00;100382.13;4986751;28;20574;-69
2023/09/11 09:22:30;;;;;;;25.13;11.32;;;;;;;25.55;100.00;100378.94;4982692;28;20752;-71
2023/09/11 09:24:57;;;;;;;21.50;10.23;;;;;;;25.73;100.00;100369.09;4984293;28;20287;-72
2023/09/11 09:27:27;;;;;;;22.65;10.23;;;;;;;25.88;100.00;100371.03;4986017;28;20197;-71
2023/09/11 09:29:54;;;;;;;19.80;10.73;;;;;;;25.93;100.00;100368.06;4986759;28;20241;-72
2023/09/11 09:32:20;;;;;;;27.83;10.82;;;;;;;25.99;100.00;100362.34;4985065;28;20205;-72
2023/09/11 09:34:51;;;;;;;22.60;10.85;;;;;;;26.11;100.00;100366.28;4982619;28;20751;-72
2023/09/11 09:37:19;;;;;;;18.00;9.82;;;;;;;26.26;99.49;100365.50;4982411;28;20267;-72
2023/09/11 09:39:48;;;;;;;19.50;8.95;;;;;;;26.39;100.00;100365.75;4999924;28;20227;-73
2023/09/11 09:42:15;;;;;;;19.95;9.52;;;;;;;26.44;94.44;100367.28;4984576;28;20209;-73
2023/09/11 09:44:47;;;;;;;19.42;9.43;;;;;;;26.51;93.69;100365.13;4986610;28;20235;-73
2023/09/11 09:47:19;;;;;;;18.23;8.75;;;;;;;26.52;94.40;100367.75;4996724;28;20207;-74
2023/09/11 09:49:49;;;;;;;19.77;9.30;;;;;;;26.46;93.00;100359.06;4981991;28;20220;-73
2023/09/11 09:52:18;;;;;;;18.90;8.93;;;;;;;26.59;98.18;100357.44;4983421;28;20200;-73
2023/09/11 09:54:49;;;;;;;24.35;11.18;;;;;;;26.59;92.92;100345.69;4985672;28;20244;-72
2023/09/11 09:57:18;;;;;;;25.38;10.57;;;;;;;26.71;95.87;100354.06;4986725;28;20256;-71
2023/09/11 09:59:50;;;;;;;19.10;9.05;;;;;;;26.84;93.41;100357.91;4986464;28;20224;-72
2023/09/11 10:02:29;;;;;;;20.80;9.88;;;;;;;26.90;91.25;100350.38;4985271;28;20209;-72
2023/09/11 10:05:01;;;;;;;27.50;9.48;;;;;;;26.89;94.12;100349.50;4986992;28;20702;-72
2023/09/11 10:07:42;;;;;;;25.30;9.40;;;;;;;27.01;91.80;100354.28;4984827;28;20225;-72
2023/09/11 10:10:21;;;;;;;24.63;8.85;;;;;;;27.26;86.63;100347.50;4987271;28;20263;-74
2023/09/11 10:13:00;;;;;;;15.38;8.75;;;;;;;27.34;84.49;100343.38;5001390;28;20304;-75
2023/09/11 10:15:27;;;;;;;16.13;7.95;;;;;;;27.42;80.03;100323.88;4985267;28;20212;-75
2023/09/11 10:17:56;;;;;;;17.48;8.68;;;;;;;27.40;70.99;100334.84;4986923;28;22104;-77
2023/09/11 10:20:24;;;;;;;17.25;7.88;;;;;;;27.55;71.58;100332.22;4983783;28;20223;-74
2023/09/11 10:22:56;;;;;;;17.80;7.95;;;;;;;27.71;71.56;100330.41;4986720;28;20197;-74
2023/09/11 10:25:23;;;;;;;22.30;10.10;;;;;;;27.78;69.12;100324.50;4986934;28;20284;-75
2023/09/11 10:27:56;;;;;;;18.00;8.75;;;;;;;27.87;68.43;100316.75;4985858;28;20233;-74
2023/09/11 10:30:26;;;;;;;13.43;7.63;;;;;;;28.00;64.12;100309.59;4982171;28;20224;-73
2023/09/11 10:32:59;;;;;;;13.93;7.00;;;;;;;28.18;61.72;100318.53;4986843;28;20260;-73
2023/09/11 10:35:31;;;;;;;17.02;8.45;;;;;;;28.16;60.11;100306.84;4984829;28;20208;-74
2023/09/11 10:37:59;;;;;;;15.35;7.40;;;;;;;28.30;60.71;100312.34;4985596;28;20685;-73
2023/09/11 10:40:30;;;;;;;17.05;7.07;;;;;;;28.45;60.44;100305.13;4982899;28;20233;-74
2023/09/11 10:42:58;;;;;;;17.83;7.65;;;;;;;28.58;60.00;100314.25;4980857;28;20213;-73
2023/09/11 10:45:29;;;;;;;21.98;8.68;;;;;;;28.44;59.75;100304.22;4982817;28;20205;-73
2023/09/11 10:47:55;;;;;;;20.98;8.20;;;;;;;28.62;61.28;100297.63;4982690;28;20209;-73
2023/09/11 10:50:23;;;;;;;16.52;8.05;;;;;;;28.79;60.35;100287.50;4987856;28;20798;-73
2023/09/11 10:52:56;;;;;;;14.43;7.13;;;;;;;29.03;57.81;100291.41;4984179;28;20225;-74
2023/09/11 10:55:24;;;;;;;14.85;7.18;;;;;;;29.15;56.74;100279.69;4982305;28;20215;-73
2023/09/11 10:57:52;;;;;;;16.55;7.35;;;;;;;29.23;57.45;100279.22;4985595;28;20229;-72
2023/09/11 11:00:21;;;;;;;14.82;7.40;;;;;;;29.31;57.46;100282.31;4984436;28;20611;-75
2023/09/11 11:02:48;;;;;;;15.07;7.15;;;;;;;29.44;58.37;100285.13;4985469;28;20225;-73
2023/09/11 11:05:15;;;;;;;19.85;7.43;;;;;;;29.46;55.16;100283.19;4983961;28;20211;-71
2023/09/11 11:07:41;;;;;;;17.10;7.63;;;;;;;29.38;55.12;100277.31;4977159;28;20635;-71